sensor_id;sensor_type;location;lat;lon;timestamp;P1;durP1;ratioP1;P2;durP2;ratioP2
14306;SDS011;7237;49.500;11.400;2023-02-11T00:00:12;31.63;;;21.57;;
14306;SDS011;7237;49.500;11.400;2023-02-11T00:02:39;31.47;;;21.17;;
14306;SDS011;7237;49.500;11.400;2023-02-11T00:05:06;31.27;;;21.13;;
14306;SDS011;7237;49.500;11.400;2023-02-11T00:07:35;31.23;;;21.73;;
14306;SDS011;7237;49.500;11.400;2023-02-11T00:10:02;34.67;;;22.47;;
14306;SDS011;7237;49.500;11.400;2023-02-11T00:12:31;39.43;;;22.20;;
14306;SDS011;7237;49.500;11.400;2023-02-11T00:14:58;29.43;;;20.20;;
14306;SDS011;7237;49.500;11.400;2023-02-11T00:17:25;30.03;;;21.30;;
14306;SDS011;7237;49.500;11.400;2023-02-11T00:19:53;31.83;;;21.80;;
14306;SDS011;7237;49.500;11.400;2023-02-11T00:22:20;30.93;;;20.40;;
14306;SDS011;7237;49.500;11.400;2023-02-11T00:24:48;31.30;;;21.17;;
14306;SDS011;7237;49.500;11.400;2023-02-11T00:27:15;27.93;;;20.27;;
14306;SDS011;7237;49.500;11.400;2023-02-11T00:29:42;30.27;;;21.03;;
14306;SDS011;7237;49.500;11.400;2023-02-11T00:32:10;29.87;;;20.83;;
14306;SDS011;7237;49.500;11.400;2023-02-11T00:34:37;28.40;;;20.23;;
14306;SDS011;7237;49.500;11.400;2023-02-11T00:37:04;31.57;;;20.90;;
14306;SDS011;7237;49.500;11.400;2023-02-11T00:39:31;32.03;;;21.47;;
14306;SDS011;7237;49.500;11.400;2023-02-11T00:41:59;28.50;;;19.97;;
14306;SDS011;7237;49.500;11.400;2023-02-11T00:44:26;31.67;;;21.17;;
14306;SDS011;7237;49.500;11.400;2023-02-11T00:46:53;33.07;;;21.00;;
14306;SDS011;7237;49.500;11.400;2023-02-11T00:49:20;33.10;;;22.50;;
14306;SDS011;7237;49.500;11.400;2023-02-11T00:51:49;33.17;;;21.83;;
14306;SDS011;7237;49.500;11.400;2023-02-11T00:54:16;30.63;;;20.30;;
14306;SDS011;7237;49.500;11.400;2023-02-11T00:56:43;31.73;;;21.03;;
14306;SDS011;7237;49.500;11.400;2023-02-11T00:59:11;32.33;;;21.53;;
14306;SDS011;7237;49.500;11.400;2023-02-11T01:01:38;31.80;;;20.00;;
14306;SDS011;7237;49.500;11.400;2023-02-11T01:04:05;29.17;;;20.63;;
14306;SDS011;7237;49.500;11.400;2023-02-11T01:06:32;33.03;;;22.53;;
14306;SDS011;7237;49.500;11.400;2023-02-11T01:08:59;30.37;;;20.67;;
14306;SDS011;7237;49.500;11.400;2023-02-11T01:11:26;34.90;;;22.10;;
14306;SDS011;7237;49.500;11.400;2023-02-11T01:13:54;34.33;;;22.73;;
14306;SDS011;7237;49.500;11.400;2023-02-11T01:16:22;33.43;;;21.70;;
14306;SDS011;7237;49.500;11.400;2023-02-11T01:18:49;30.57;;;21.77;;
14306;SDS011;7237;49.500;11.400;2023-02-11T01:21:16;29.23;;;20.73;;
14306;SDS011;7237;49.500;11.400;2023-02-11T01:23:43;29.63;;;19.87;;
14306;SDS011;7237;49.500;11.400;2023-02-11T01:26:10;29.30;;;21.63;;
14306;SDS011;7237;49.500;11.400;2023-02-11T01:28:38;29.33;;;21.07;;
14306;SDS011;7237;49.500;11.400;2023-02-11T01:31:05;32.97;;;20.47;;
14306;SDS011;7237;49.500;11.400;2023-02-11T01:33:33;27.03;;;19.53;;
14306;SDS011;7237;49.500;11.400;2023-02-11T01:36:00;31.50;;;21.13;;
14306;SDS011;7237;49.500;11.400;2023-02-11T01:38:28;32.73;;;21.47;;
14306;SDS011;7237;49.500;11.400;2023-02-11T01:40:55;31.40;;;21.20;;
14306;SDS011;7237;49.500;11.400;2023-02-11T01:43:23;30.73;;;21.80;;
14306;SDS011;7237;49.500;11.400;2023-02-11T01:46:05;29.50;;;20.70;;
14306;SDS011;7237;49.500;11.400;2023-02-11T01:48:41;30.90;;;21.40;;
14306;SDS011;7237;49.500;11.400;2023-02-11T01:51:10;32.23;;;21.30;;
14306;SDS011;7237;49.500;11.400;2023-02-11T01:53:38;30.27;;;21.70;;
14306;SDS011;7237;49.500;11.400;2023-02-11T01:56:23;30.37;;;19.60;;
14306;SDS011;7237;49.500;11.400;2023-02-11T01:59:10;27.90;;;20.10;;
14306;SDS011;7237;49.500;11.400;2023-02-11T02:01:39;29.87;;;20.33;;
14306;SDS011;7237;49.500;11.400;2023-02-11T02:04:08;32.67;;;21.50;;
14306;SDS011;7237;49.500;11.400;2023-02-11T02:06:37;31.23;;;20.13;;
14306;SDS011;7237;49.500;11.400;2023-02-11T02:09:07;31.73;;;21.87;;
14306;SDS011;7237;49.500;11.400;2023-02-11T02:11:35;30.53;;;22.13;;
14306;SDS011;7237;49.500;11.400;2023-02-11T02:14:02;33.43;;;21.07;;
14306;SDS011;7237;49.500;11.400;2023-02-11T02:16:29;32.50;;;21.60;;
14306;SDS011;7237;49.500;11.400;2023-02-11T02:19:02;31.27;;;21.53;;
14306;SDS011;7237;49.500;11.400;2023-02-11T02:21:40;33.33;;;20.83;;
14306;SDS011;7237;49.500;11.400;2023-02-11T02:24:23;28.80;;;20.70;;
14306;SDS011;7237;49.500;11.400;2023-02-11T02:27:06;30.70;;;19.87;;
14306;SDS011;7237;49.500;11.400;2023-02-11T02:32:39;32.47;;;21.00;;
14306;SDS011;7237;49.500;11.400;2023-02-11T02:35:10;33.30;;;21.60;;
14306;SDS011;7237;49.500;11.400;2023-02-11T02:37:43;32.37;;;20.83;;
14306;SDS011;7237;49.500;11.400;2023-02-11T02:40:14;31.90;;;21.70;;
14306;SDS011;7237;49.500;11.400;2023-02-11T02:42:42;30.67;;;20.43;;
14306;SDS011;7237;49.500;11.400;2023-02-11T02:45:10;28.87;;;20.47;;
14306;SDS011;7237;49.500;11.400;2023-02-11T02:47:37;29.50;;;20.80;;
14306;SDS011;7237;49.500;11.400;2023-02-11T02:50:06;28.93;;;20.40;;
14306;SDS011;7237;49.500;11.400;2023-02-11T02:52:34;30.53;;;20.90;;
14306;SDS011;7237;49.500;11.400;2023-02-11T02:55:16;30.87;;;20.60;;
14306;SDS011;7237;49.500;11.400;2023-02-11T02:58:00;26.70;;;19.63;;
14306;SDS011;7237;49.500;11.400;2023-02-11T03:00:31;26.87;;;20.17;;
14306;SDS011;7237;49.500;11.400;2023-02-11T03:03:05;30.43;;;21.27;;
14306;SDS011;7237;49.500;11.400;2023-02-11T03:05:37;30.83;;;20.90;;
14306;SDS011;7237;49.500;11.400;2023-02-11T03:08:07;28.77;;;20.73;;
14306;SDS011;7237;49.500;11.400;2023-02-11T03:10:36;30.47;;;20.97;;
14306;SDS011;7237;49.500;11.400;2023-02-11T03:13:04;30.97;;;21.07;;
14306;SDS011;7237;49.500;11.400;2023-02-11T03:15:33;29.83;;;21.30;;
14306;SDS011;7237;49.500;11.400;2023-02-11T03:18:00;27.93;;;19.90;;
14306;SDS011;7237;49.500;11.400;2023-02-11T03:20:29;30.17;;;20.67;;
14306;SDS011;7237;49.500;11.400;2023-02-11T03:23:00;30.20;;;21.40;;
14306;SDS011;7237;49.500;11.400;2023-02-11T03:25:29;30.00;;;21.73;;
14306;SDS011;7237;49.500;11.400;2023-02-11T03:27:59;29.47;;;20.93;;
14306;SDS011;7237;49.500;11.400;2023-02-11T03:30:29;27.57;;;19.87;;
14306;SDS011;7237;49.500;11.400;2023-02-11T03:33:00;28.73;;;20.10;;
14306;SDS011;7237;49.500;11.400;2023-02-11T03:35:31;31.60;;;19.80;;
14306;SDS011;7237;49.500;11.400;2023-02-11T03:38:00;28.67;;;20.13;;
14306;SDS011;7237;49.500;11.400;2023-02-11T03:40:28;26.27;;;19.80;;
14306;SDS011;7237;49.500;11.400;2023-02-11T03:42:58;26.27;;;19.77;;
14306;SDS011;7237;49.500;11.400;2023-02-11T03:45:26;28.90;;;20.07;;
14306;SDS011;7237;49.500;11.400;2023-02-11T03:47:54;27.17;;;19.77;;
14306;SDS011;7237;49.500;11.400;2023-02-11T03:50:21;28.20;;;20.43;;
14306;SDS011;7237;49.500;11.400;2023-02-11T03:52:49;25.80;;;19.93;;
14306;SDS011;7237;49.500;11.400;2023-02-11T03:55:19;29.80;;;21.43;;
14306;SDS011;7237;49.500;11.400;2023-02-11T03:57:46;28.20;;;21.13;;
14306;SDS011;7237;49.500;11.400;2023-02-11T04:00:14;29.23;;;20.43;;
14306;SDS011;7237;49.500;11.400;2023-02-11T04:02:41;28.77;;;20.10;;
14306;SDS011;7237;49.500;11.400;2023-02-11T04:05:09;27.40;;;20.37;;
14306;SDS011;7237;49.500;11.400;2023-02-11T04:07:37;28.67;;;19.67;;
14306;SDS011;7237;49.500;11.400;2023-02-11T04:10:04;26.50;;;19.87;;
14306;SDS011;7237;49.500;11.400;2023-02-11T04:12:32;27.00;;;19.20;;
14306;SDS011;7237;49.500;11.400;2023-02-11T04:14:59;26.17;;;18.60;;
14306;SDS011;7237;49.500;11.400;2023-02-11T04:17:26;27.27;;;20.20;;
14306;SDS011;7237;49.500;11.400;2023-02-11T04:19:53;26.20;;;19.10;;
14306;SDS011;7237;49.500;11.400;2023-02-11T04:22:21;27.73;;;19.73;;
14306;SDS011;7237;49.500;11.400;2023-02-11T04:24:48;27.27;;;20.40;;
14306;SDS011;7237;49.500;11.400;2023-02-11T04:27:15;30.70;;;21.07;;
14306;SDS011;7237;49.500;11.400;2023-02-11T04:29:43;28.60;;;19.70;;
14306;SDS011;7237;49.500;11.400;2023-02-11T04:32:10;26.23;;;19.37;;
14306;SDS011;7237;49.500;11.400;2023-02-11T04:34:37;27.97;;;19.70;;
14306;SDS011;7237;49.500;11.400;2023-02-11T04:37:04;26.93;;;19.80;;
14306;SDS011;7237;49.500;11.400;2023-02-11T04:39:32;24.80;;;18.70;;
14306;SDS011;7237;49.500;11.400;2023-02-11T04:41:59;25.03;;;19.43;;
14306;SDS011;7237;49.500;11.400;2023-02-11T04:44:26;27.40;;;19.17;;
14306;SDS011;7237;49.500;11.400;2023-02-11T04:46:55;26.50;;;19.60;;
14306;SDS011;7237;49.500;11.400;2023-02-11T04:49:22;29.80;;;20.00;;
14306;SDS011;7237;49.500;11.400;2023-02-11T04:51:50;27.90;;;20.23;;
14306;SDS011;7237;49.500;11.400;2023-02-11T04:54:17;28.27;;;19.13;;
14306;SDS011;7237;49.500;11.400;2023-02-11T04:56:44;28.50;;;19.63;;
14306;SDS011;7237;49.500;11.400;2023-02-11T04:59:11;24.67;;;18.10;;
14306;SDS011;7237;49.500;11.400;2023-02-11T05:01:38;28.67;;;19.77;;
14306;SDS011;7237;49.500;11.400;2023-02-11T05:04:06;27.13;;;19.97;;
14306;SDS011;7237;49.500;11.400;2023-02-11T05:06:33;28.33;;;21.00;;
14306;SDS011;7237;49.500;11.400;2023-02-11T05:09:00;28.23;;;21.47;;
14306;SDS011;7237;49.500;11.400;2023-02-11T05:11:27;26.20;;;19.77;;
14306;SDS011;7237;49.500;11.400;2023-02-11T05:13:54;28.53;;;20.07;;
14306;SDS011;7237;49.500;11.400;2023-02-11T05:16:22;27.17;;;20.03;;
14306;SDS011;7237;49.500;11.400;2023-02-11T05:18:49;26.70;;;19.70;;
14306;SDS011;7237;49.500;11.400;2023-02-11T05:21:19;27.47;;;18.67;;
14306;SDS011;7237;49.500;11.400;2023-02-11T05:23:46;24.03;;;18.63;;
14306;SDS011;7237;49.500;11.400;2023-02-11T05:26:13;26.40;;;19.67;;
14306;SDS011;7237;49.500;11.400;2023-02-11T05:28:41;27.77;;;19.40;;
14306;SDS011;7237;49.500;11.400;2023-02-11T05:31:08;24.57;;;17.13;;
14306;SDS011;7237;49.500;11.400;2023-02-11T05:33:35;29.67;;;20.30;;
14306;SDS011;7237;49.500;11.400;2023-02-11T05:36:03;25.03;;;18.77;;
14306;SDS011;7237;49.500;11.400;2023-02-11T05:38:32;27.13;;;18.80;;
14306;SDS011;7237;49.500;11.400;2023-02-11T05:40:59;25.13;;;18.93;;
14306;SDS011;7237;49.500;11.400;2023-02-11T05:43:26;24.47;;;17.93;;
14306;SDS011;7237;49.500;11.400;2023-02-11T05:45:53;24.20;;;17.27;;
14306;SDS011;7237;49.500;11.400;2023-02-11T05:48:21;22.87;;;16.13;;
14306;SDS011;7237;49.500;11.400;2023-02-11T05:50:48;20.13;;;15.53;;
14306;SDS011;7237;49.500;11.400;2023-02-11T05:53:15;19.63;;;14.20;;
14306;SDS011;7237;49.500;11.400;2023-02-11T05:55:43;19.83;;;15.40;;
14306;SDS011;7237;49.500;11.400;2023-02-11T05:58:10;20.00;;;14.27;;
14306;SDS011;7237;49.500;11.400;2023-02-11T06:00:37;18.33;;;14.40;;
14306;SDS011;7237;49.500;11.400;2023-02-11T06:03:04;18.00;;;13.53;;
14306;SDS011;7237;49.500;11.400;2023-02-11T06:05:32;17.63;;;14.00;;
14306;SDS011;7237;49.500;11.400;2023-02-11T06:07:59;19.97;;;13.73;;
14306;SDS011;7237;49.500;11.400;2023-02-11T06:10:26;17.97;;;13.23;;
14306;SDS011;7237;49.500;11.400;2023-02-11T06:12:54;20.87;;;12.87;;
14306;SDS011;7237;49.500;11.400;2023-02-11T06:15:21;16.10;;;13.10;;
14306;SDS011;7237;49.500;11.400;2023-02-11T06:17:48;19.20;;;13.67;;
14306;SDS011;7237;49.500;11.400;2023-02-11T06:20:15;15.77;;;12.13;;
14306;SDS011;7237;49.500;11.400;2023-02-11T06:22:42;17.50;;;12.57;;
14306;SDS011;7237;49.500;11.400;2023-02-11T06:25:09;16.07;;;12.83;;
14306;SDS011;7237;49.500;11.400;2023-02-11T06:27:37;18.30;;;12.83;;
14306;SDS011;7237;49.500;11.400;2023-02-11T06:30:06;16.37;;;13.00;;
14306;SDS011;7237;49.500;11.400;2023-02-11T06:32:34;16.87;;;12.50;;
14306;SDS011;7237;49.500;11.400;2023-02-11T06:35:01;14.67;;;12.03;;
14306;SDS011;7237;49.500;11.400;2023-02-11T06:37:28;13.07;;;10.70;;
14306;SDS011;7237;49.500;11.400;2023-02-11T06:39:55;15.90;;;12.30;;
14306;SDS011;7237;49.500;11.400;2023-02-11T06:42:22;16.30;;;11.83;;
14306;SDS011;7237;49.500;11.400;2023-02-11T06:44:49;14.97;;;11.60;;
14306;SDS011;7237;49.500;11.400;2023-02-11T06:47:17;14.60;;;11.63;;
14306;SDS011;7237;49.500;11.400;2023-02-11T06:49:44;15.40;;;12.00;;
14306;SDS011;7237;49.500;11.400;2023-02-11T06:52:11;15.87;;;12.50;;
14306;SDS011;7237;49.500;11.400;2023-02-11T06:54:38;14.37;;;11.47;;
14306;SDS011;7237;49.500;11.400;2023-02-11T06:57:05;13.90;;;11.33;;
14306;SDS011;7237;49.500;11.400;2023-02-11T06:59:32;14.43;;;10.97;;
14306;SDS011;7237;49.500;11.400;2023-02-11T07:01:59;14.87;;;12.10;;
14306;SDS011;7237;49.500;11.400;2023-02-11T07:04:28;14.93;;;12.10;;
14306;SDS011;7237;49.500;11.400;2023-02-11T07:06:55;15.50;;;12.13;;
14306;SDS011;7237;49.500;11.400;2023-02-11T07:09:22;14.63;;;12.20;;
14306;SDS011;7237;49.500;11.400;2023-02-11T07:11:49;16.93;;;11.47;;
14306;SDS011;7237;49.500;11.400;2023-02-11T07:14:16;15.07;;;11.97;;
14306;SDS011;7237;49.500;11.400;2023-02-11T07:16:43;15.07;;;12.27;;
14306;SDS011;7237;49.500;11.400;2023-02-11T07:19:10;16.17;;;11.73;;
14306;SDS011;7237;49.500;11.400;2023-02-11T07:21:38;15.07;;;11.80;;
14306;SDS011;7237;49.500;11.400;2023-02-11T07:24:06;17.13;;;12.00;;
14306;SDS011;7237;49.500;11.400;2023-02-11T07:26:33;16.33;;;12.33;;
14306;SDS011;7237;49.500;11.400;2023-02-11T07:29:00;14.40;;;12.23;;
14306;SDS011;7237;49.500;11.400;2023-02-11T07:31:28;16.30;;;12.30;;
14306;SDS011;7237;49.500;11.400;2023-02-11T07:33:56;17.93;;;12.60;;
14306;SDS011;7237;49.500;11.400;2023-02-11T07:36:24;17.43;;;13.37;;
14306;SDS011;7237;49.500;11.400;2023-02-11T07:38:52;14.47;;;11.37;;
14306;SDS011;7237;49.500;11.400;2023-02-11T07:41:20;13.80;;;10.77;;
14306;SDS011;7237;49.500;11.400;2023-02-11T07:43:48;15.80;;;12.17;;
14306;SDS011;7237;49.500;11.400;2023-02-11T07:46:16;13.90;;;10.37;;
14306;SDS011;7237;49.500;11.400;2023-02-11T07:48:44;15.57;;;11.30;;
14306;SDS011;7237;49.500;11.400;2023-02-11T07:51:12;12.20;;;9.93;;
14306;SDS011;7237;49.500;11.400;2023-02-11T07:53:39;12.23;;;10.40;;
14306;SDS011;7237;49.500;11.400;2023-02-11T07:56:08;13.97;;;10.67;;
14306;SDS011;7237;49.500;11.400;2023-02-11T07:58:36;13.47;;;11.17;;
14306;SDS011;7237;49.500;11.400;2023-02-11T08:01:03;12.97;;;10.63;;
14306;SDS011;7237;49.500;11.400;2023-02-11T08:03:31;13.50;;;10.30;;
14306;SDS011;7237;49.500;11.400;2023-02-11T08:06:01;12.43;;;10.20;;
14306;SDS011;7237;49.500;11.400;2023-02-11T08:08:28;13.20;;;10.47;;
14306;SDS011;7237;49.500;11.400;2023-02-11T08:10:55;13.20;;;10.27;;
14306;SDS011;7237;49.500;11.400;2023-02-11T08:13:24;10.80;;;9.20;;
14306;SDS011;7237;49.500;11.400;2023-02-11T08:15:51;11.70;;;10.07;;
14306;SDS011;7237;49.500;11.400;2023-02-11T08:18:18;12.37;;;10.00;;
14306;SDS011;7237;49.500;11.400;2023-02-11T08:20:45;13.00;;;10.27;;
14306;SDS011;7237;49.500;11.400;2023-02-11T08:23:12;12.93;;;10.10;;
14306;SDS011;7237;49.500;11.400;2023-02-11T08:25:39;13.70;;;10.30;;
14306;SDS011;7237;49.500;11.400;2023-02-11T08:28:06;11.80;;;9.67;;
14306;SDS011;7237;49.500;11.400;2023-02-11T08:30:35;10.47;;;8.80;;
14306;SDS011;7237;49.500;11.400;2023-02-11T08:33:02;12.03;;;9.93;;
14306;SDS011;7237;49.500;11.400;2023-02-11T08:35:29;11.10;;;9.70;;
14306;SDS011;7237;49.500;11.400;2023-02-11T08:37:57;12.47;;;9.47;;
14306;SDS011;7237;49.500;11.400;2023-02-11T08:40:24;11.50;;;9.53;;
14306;SDS011;7237;49.500;11.400;2023-02-11T08:42:51;11.80;;;9.83;;
14306;SDS011;7237;49.500;11.400;2023-02-11T08:45:18;12.83;;;10.10;;
14306;SDS011;7237;49.500;11.400;2023-02-11T08:47:46;12.73;;;9.77;;
14306;SDS011;7237;49.500;11.400;2023-02-11T08:50:13;12.73;;;9.27;;
14306;SDS011;7237;49.500;11.400;2023-02-11T08:52:40;12.43;;;9.87;;
14306;SDS011;7237;49.500;11.400;2023-02-11T08:55:08;12.77;;;10.80;;
14306;SDS011;7237;49.500;11.400;2023-02-11T08:57:35;12.33;;;10.10;;
14306;SDS011;7237;49.500;11.400;2023-02-11T09:00:03;11.50;;;9.13;;
14306;SDS011;7237;49.500;11.400;2023-02-11T09:02:30;12.53;;;9.80;;
14306;SDS011;7237;49.500;11.400;2023-02-11T09:04:58;9.83;;;8.30;;
14306;SDS011;7237;49.500;11.400;2023-02-11T09:07:25;11.87;;;9.73;;
14306;SDS011;7237;49.500;11.400;2023-02-11T09:09:53;13.83;;;10.10;;
14306;SDS011;7237;49.500;11.400;2023-02-11T09:12:20;14.33;;;10.77;;
14306;SDS011;7237;49.500;11.400;2023-02-11T09:14:47;11.93;;;9.40;;
14306;SDS011;7237;49.500;11.400;2023-02-11T09:17:14;11.53;;;9.87;;
14306;SDS011;7237;49.500;11.400;2023-02-11T09:19:41;12.10;;;9.27;;
14306;SDS011;7237;49.500;11.400;2023-02-11T09:22:10;11.53;;;10.03;;
14306;SDS011;7237;49.500;11.400;2023-02-11T09:24:37;12.97;;;10.20;;
14306;SDS011;7237;49.500;11.400;2023-02-11T09:27:04;12.77;;;10.60;;
14306;SDS011;7237;49.500;11.400;2023-02-11T09:29:31;12.27;;;10.67;;
14306;SDS011;7237;49.500;11.400;2023-02-11T09:31:58;16.40;;;9.90;;
14306;SDS011;7237;49.500;11.400;2023-02-11T09:34:25;15.20;;;10.40;;
14306;SDS011;7237;49.500;11.400;2023-02-11T09:36:52;14.43;;;10.57;;
14306;SDS011;7237;49.500;11.400;2023-02-11T09:39:20;14.67;;;10.83;;
14306;SDS011;7237;49.500;11.400;2023-02-11T09:42:07;13.77;;;10.67;;
14306;SDS011;7237;49.500;11.400;2023-02-11T09:44:37;12.60;;;10.07;;
14306;SDS011;7237;49.500;11.400;2023-02-11T09:47:04;13.37;;;10.00;;
14306;SDS011;7237;49.500;11.400;2023-02-11T09:49:33;13.93;;;10.63;;
14306;SDS011;7237;49.500;11.400;2023-02-11T09:52:03;12.50;;;9.87;;
14306;SDS011;7237;49.500;11.400;2023-02-11T09:54:34;13.50;;;10.50;;
14306;SDS011;7237;49.500;11.400;2023-02-11T09:57:02;17.67;;;11.77;;
14306;SDS011;7237;49.500;11.400;2023-02-11T09:59:31;14.63;;;11.03;;
14306;SDS011;7237;49.500;11.400;2023-02-11T10:01:59;14.77;;;10.90;;
14306;SDS011;7237;49.500;11.400;2023-02-11T10:04:32;13.40;;;9.90;;
14306;SDS011;7237;49.500;11.400;2023-02-11T10:07:06;13.13;;;9.40;;
14306;SDS011;7237;49.500;11.400;2023-02-11T10:09:48;12.07;;;9.83;;
14306;SDS011;7237;49.500;11.400;2023-02-11T10:12:21;11.97;;;8.83;;
14306;SDS011;7237;49.500;11.400;2023-02-11T10:14:55;11.30;;;9.30;;
14306;SDS011;7237;49.500;11.400;2023-02-11T10:17:26;11.50;;;10.17;;
14306;SDS011;7237;49.500;11.400;2023-02-11T10:20:02;11.57;;;9.43;;
14306;SDS011;7237;49.500;11.400;2023-02-11T10:22:35;12.50;;;10.23;;
14306;SDS011;7237;49.500;11.400;2023-02-11T10:25:10;11.53;;;9.50;;
14306;SDS011;7237;49.500;11.400;2023-02-11T10:27:42;10.67;;;9.20;;
14306;SDS011;7237;49.500;11.400;2023-02-11T10:30:14;11.43;;;9.27;;
14306;SDS011;7237;49.500;11.400;2023-02-11T10:32:44;10.87;;;9.77;;
14306;SDS011;7237;49.500;11.400;2023-02-11T10:35:13;12.97;;;10.13;;
14306;SDS011;7237;49.500;11.400;2023-02-11T10:37:42;12.50;;;9.97;;
14306;SDS011;7237;49.500;11.400;2023-02-11T10:40:13;14.47;;;11.50;;
14306;SDS011;7237;49.500;11.400;2023-02-11T10:42:40;14.83;;;9.83;;
14306;SDS011;7237;49.500;11.400;2023-02-11T10:45:09;15.73;;;11.73;;
14306;SDS011;7237;49.500;11.400;2023-02-11T10:47:41;15.53;;;12.10;;
14306;SDS011;7237;49.500;11.400;2023-02-11T10:50:20;14.53;;;10.30;;
14306;SDS011;7237;49.500;11.400;2023-02-11T10:52:47;13.63;;;10.00;;
14306;SDS011;7237;49.500;11.400;2023-02-11T10:55:16;12.03;;;9.63;;
14306;SDS011;7237;49.500;11.400;2023-02-11T10:57:48;14.17;;;10.70;;
14306;SDS011;7237;49.500;11.400;2023-02-11T11:00:22;13.13;;;11.07;;
14306;SDS011;7237;49.500;11.400;2023-02-11T11:02:54;13.63;;;10.10;;
14306;SDS011;7237;49.500;11.400;2023-02-11T11:05:23;13.13;;;11.07;;
14306;SDS011;7237;49.500;11.400;2023-02-11T11:07:52;16.13;;;11.17;;
14306;SDS011;7237;49.500;11.400;2023-02-11T11:10:29;16.83;;;10.37;;
14306;SDS011;7237;49.500;11.400;2023-02-11T11:12:57;13.73;;;10.83;;
14306;SDS011;7237;49.500;11.400;2023-02-11T11:15:25;12.03;;;9.63;;
14306;SDS011;7237;49.500;11.400;2023-02-11T11:18:07;13.30;;;9.87;;
14306;SDS011;7237;49.500;11.400;2023-02-11T11:20:35;13.47;;;10.40;;
14306;SDS011;7237;49.500;11.400;2023-02-11T11:23:09;13.60;;;10.53;;
14306;SDS011;7237;49.500;11.400;2023-02-11T11:25:42;12.33;;;10.10;;
14306;SDS011;7237;49.500;11.400;2023-02-11T11:28:17;14.60;;;10.83;;
14306;SDS011;7237;49.500;11.400;2023-02-11T11:30:45;15.30;;;11.10;;
14306;SDS011;7237;49.500;11.400;2023-02-11T11:33:16;12.47;;;10.70;;
14306;SDS011;7237;49.500;11.400;2023-02-11T11:35:51;16.00;;;11.87;;
14306;SDS011;7237;49.500;11.400;2023-02-11T11:38:21;13.70;;;10.93;;
14306;SDS011;7237;49.500;11.400;2023-02-11T11:40:50;14.60;;;11.37;;
14306;SDS011;7237;49.500;11.400;2023-02-11T11:43:37;16.93;;;11.67;;
14306;SDS011;7237;49.500;11.400;2023-02-11T11:46:04;14.40;;;11.50;;
14306;SDS011;7237;49.500;11.400;2023-02-11T11:48:33;14.77;;;11.40;;
14306;SDS011;7237;49.500;11.400;2023-02-11T11:51:03;14.97;;;10.80;;
14306;SDS011;7237;49.500;11.400;2023-02-11T11:53:33;16.70;;;12.13;;
14306;SDS011;7237;49.500;11.400;2023-02-11T11:56:05;15.53;;;11.47;;
14306;SDS011;7237;49.500;11.400;2023-02-11T11:58:32;13.80;;;11.40;;
14306;SDS011;7237;49.500;11.400;2023-02-11T12:01:02;16.47;;;12.00;;
14306;SDS011;7237;49.500;11.400;2023-02-11T12:03:34;12.87;;;11.43;;
14306;SDS011;7237;49.500;11.400;2023-02-11T12:06:10;16.53;;;12.10;;
14306;SDS011;7237;49.500;11.400;2023-02-11T12:08:43;16.53;;;12.23;;
14306;SDS011;7237;49.500;11.400;2023-02-11T12:11:16;16.17;;;11.83;;
14306;SDS011;7237;49.500;11.400;2023-02-11T12:13:57;14.00;;;10.87;;
14306;SDS011;7237;49.500;11.400;2023-02-11T12:16:28;14.63;;;10.70;;
14306;SDS011;7237;49.500;11.400;2023-02-11T12:19:06;13.77;;;10.40;;
14306;SDS011;7237;49.500;11.400;2023-02-11T12:21:39;13.23;;;10.43;;
14306;SDS011;7237;49.500;11.400;2023-02-11T12:24:15;17.00;;;11.93;;
14306;SDS011;7237;49.500;11.400;2023-02-11T12:26:50;13.87;;;11.30;;
14306;SDS011;7237;49.500;11.400;2023-02-11T12:29:21;13.27;;;9.77;;
14306;SDS011;7237;49.500;11.400;2023-02-11T12:31:59;15.57;;;11.40;;
14306;SDS011;7237;49.500;11.400;2023-02-11T12:34:35;17.97;;;11.57;;
14306;SDS011;7237;49.500;11.400;2023-02-11T12:37:13;14.63;;;10.60;;
14306;SDS011;7237;49.500;11.400;2023-02-11T12:39:43;14.37;;;10.93;;
14306;SDS011;7237;49.500;11.400;2023-02-11T12:42:29;12.87;;;10.80;;
14306;SDS011;7237;49.500;11.400;2023-02-11T12:45:16;16.83;;;11.57;;
14306;SDS011;7237;49.500;11.400;2023-02-11T12:47:49;15.47;;;11.57;;
14306;SDS011;7237;49.500;11.400;2023-02-11T12:50:21;14.20;;;11.17;;
14306;SDS011;7237;49.500;11.400;2023-02-11T12:52:57;12.97;;;10.93;;
14306;SDS011;7237;49.500;11.400;2023-02-11T12:55:27;15.07;;;11.50;;
14306;SDS011;7237;49.500;11.400;2023-02-11T12:57:57;13.17;;;11.67;;
14306;SDS011;7237;49.500;11.400;2023-02-11T13:00:37;16.30;;;10.90;;
14306;SDS011;7237;49.500;11.400;2023-02-11T13:03:04;13.63;;;10.93;;
14306;SDS011;7237;49.500;11.400;2023-02-11T13:05:37;16.90;;;12.40;;
14306;SDS011;7237;49.500;11.400;2023-02-11T13:08:07;13.07;;;11.07;;
14306;SDS011;7237;49.500;11.400;2023-02-11T13:10:38;13.23;;;10.63;;
14306;SDS011;7237;49.500;11.400;2023-02-11T13:13:12;15.23;;;11.27;;
14306;SDS011;7237;49.500;11.400;2023-02-11T13:15:43;15.93;;;11.60;;
14306;SDS011;7237;49.500;11.400;2023-02-11T13:18:13;16.40;;;11.30;;
14306;SDS011;7237;49.500;11.400;2023-02-11T13:20:44;14.40;;;11.37;;
14306;SDS011;7237;49.500;11.400;2023-02-11T13:23:15;15.67;;;11.03;;
14306;SDS011;7237;49.500;11.400;2023-02-11T13:25:46;16.17;;;10.80;;
14306;SDS011;7237;49.500;11.400;2023-02-11T13:28:22;14.60;;;11.77;;
14306;SDS011;7237;49.500;11.400;2023-02-11T13:30:51;15.37;;;10.57;;
14306;SDS011;7237;49.500;11.400;2023-02-11T13:33:30;17.13;;;12.60;;
14306;SDS011;7237;49.500;11.400;2023-02-11T13:36:16;15.90;;;11.30;;
14306;SDS011;7237;49.500;11.400;2023-02-11T13:38:55;14.67;;;11.13;;
14306;SDS011;7237;49.500;11.400;2023-02-11T13:41:23;16.43;;;10.93;;
14306;SDS011;7237;49.500;11.400;2023-02-11T13:44:00;12.73;;;9.90;;
14306;SDS011;7237;49.500;11.400;2023-02-11T13:46:29;14.80;;;10.43;;
14306;SDS011;7237;49.500;11.400;2023-02-11T13:49:14;14.13;;;10.40;;
14306;SDS011;7237;49.500;11.400;2023-02-11T13:51:43;13.80;;;9.73;;
14306;SDS011;7237;49.500;11.400;2023-02-11T13:54:17;13.47;;;10.73;;
14306;SDS011;7237;49.500;11.400;2023-02-11T13:57:14;17.07;;;11.10;;
14306;SDS011;7237;49.500;11.400;2023-02-11T13:59:46;13.77;;;9.43;;
14306;SDS011;7237;49.500;11.400;2023-02-11T14:02:20;14.40;;;10.90;;
14306;SDS011;7237;49.500;11.400;2023-02-11T14:05:20;15.17;;;11.70;;
14306;SDS011;7237;49.500;11.400;2023-02-11T14:08:21;14.30;;;11.37;;
14306;SDS011;7237;49.500;11.400;2023-02-11T14:11:07;14.93;;;11.13;;
14306;SDS011;7237;49.500;11.400;2023-02-11T14:16:20;16.17;;;11.60;;
14306;SDS011;7237;49.500;11.400;2023-02-11T14:19:00;15.97;;;11.90;;
14306;SDS011;7237;49.500;11.400;2023-02-11T14:21:34;13.90;;;11.33;;
14306;SDS011;7237;49.500;11.400;2023-02-11T14:26:48;13.60;;;10.90;;
14306;SDS011;7237;49.500;11.400;2023-02-11T14:29:18;13.93;;;11.13;;
14306;SDS011;7237;49.500;11.400;2023-02-11T14:31:53;16.73;;;11.67;;
14306;SDS011;7237;49.500;11.400;2023-02-11T14:34:27;16.17;;;11.37;;
14306;SDS011;7237;49.500;11.400;2023-02-11T14:37:03;17.07;;;11.20;;
14306;SDS011;7237;49.500;11.400;2023-02-11T14:39:39;19.53;;;12.53;;
14306;SDS011;7237;49.500;11.400;2023-02-11T14:42:13;17.30;;;12.07;;
14306;SDS011;7237;49.500;11.400;2023-02-11T14:44:42;13.67;;;11.10;;
14306;SDS011;7237;49.500;11.400;2023-02-11T14:47:11;19.20;;;14.83;;